sensor_id;sensor_type;location;lat;lon;timestamp;pressure;altitude;pressure_sealevel;temperature;humidity
83246;BME280;73140;46.754;17.714;2024-03-29T00:02:19;98779.69;;;9.02;81.06
83246;BME280;73140;46.754;17.714;2024-03-29T00:04:45;98769.13;;;8.92;82.00
83246;BME280;73140;46.754;17.714;2024-03-29T00:07:13;98769.13;;;8.89;82.15
83246;BME280;73140;46.754;17.714;2024-03-29T00:09:39;98769.16;;;8.93;80.80
83246;BME280;73140;46.754;17.714;2024-03-29T00:12:05;98786.75;;;9.11;80.07
83246;BME280;73140;46.754;17.714;2024-03-29T00:14:31;98791.16;;;9.11;81.60
83246;BME280;73140;46.754;17.714;2024-03-29T00:16:57;98779.69;;;8.99;82.11
83246;BME280;73140;46.754;17.714;2024-03-29T00:19:26;98779.69;;;8.93;80.93
83246;BME280;73140;46.754;17.714;2024-03-29T00:21:52;98760.31;;;8.87;82.34
83246;BME280;73140;46.754;17.714;2024-03-29T00:24:22;98769.16;;;8.96;80.99
83246;BME280;73140;46.754;17.714;2024-03-29T00:26:52;98766.47;;;8.87;82.83
83246;BME280;73140;46.754;17.714;2024-03-29T00:29:18;98784.97;;;8.92;81.39
83246;BME280;73140;46.754;17.714;2024-03-29T00:31:44;98774.38;;;8.84;83.00
83246;BME280;73140;46.754;17.714;2024-03-29T00:34:11;98794.63;;;8.85;82.48
83246;BME280;73140;46.754;17.714;2024-03-29T00:36:37;98803.44;;;8.93;81.19
83246;BME280;73140;46.754;17.714;2024-03-29T00:39:03;98792.94;;;9.06;81.29
83246;BME280;73140;46.754;17.714;2024-03-29T00:41:30;98816.66;;;9.07;81.35
83246;BME280;73140;46.754;17.714;2024-03-29T00:43:56;98824.56;;;9.01;80.84
83246;BME280;73140;46.754;17.714;2024-03-29T00:46:22;98841.25;;;8.97;80.97
83246;BME280;73140;46.754;17.714;2024-03-29T00:48:48;98839.50;;;9.03;81.00
83246;BME280;73140;46.754;17.714;2024-03-29T00:51:14;98816.59;;;8.89;83.43
83246;BME280;73140;46.754;17.714;2024-03-29T00:53:40;98833.25;;;8.79;83.26
83246;BME280;73140;46.754;17.714;2024-03-29T00:56:06;98841.16;;;8.77;83.97
83246;BME280;73140;46.754;17.714;2024-03-29T00:58:34;98853.44;;;8.78;84.06
83246;BME280;73140;46.754;17.714;2024-03-29T01:01:09;98855.13;;;8.63;84.64
83246;BME280;73140;46.754;17.714;2024-03-29T01:03:35;98867.44;;;8.64;84.60
83246;BME280;73140;46.754;17.714;2024-03-29T01:06:01;98899.09;;;8.68;85.43
83246;BME280;73140;46.754;17.714;2024-03-29T01:08:27;98879.72;;;8.57;85.50
83246;BME280;73140;46.754;17.714;2024-03-29T01:10:53;98881.38;;;8.47;85.50
83246;BME280;73140;46.754;17.714;2024-03-29T01:13:19;98903.38;;;8.51;87.32
83246;BME280;73140;46.754;17.714;2024-03-29T01:15:47;98887.56;;;8.51;87.04
83246;BME280;73140;46.754;17.714;2024-03-29T01:18:14;98908.72;;;8.57;85.58
83246;BME280;73140;46.754;17.714;2024-03-29T01:20:41;98914.00;;;8.63;84.99
83246;BME280;73140;46.754;17.714;2024-03-29T01:23:08;98932.53;;;8.72;84.82
83246;BME280;73140;46.754;17.714;2024-03-29T01:25:34;98937.78;;;8.69;86.14
83246;BME280;73140;46.754;17.714;2024-03-29T01:28:00;98930.69;;;8.58;86.01
83246;BME280;73140;46.754;17.714;2024-03-29T01:30:26;98938.63;;;8.62;87.20
83246;BME280;73140;46.754;17.714;2024-03-29T01:32:54;98922.78;;;8.58;87.13
83246;BME280;73140;46.754;17.714;2024-03-29T01:35:20;98935.94;;;8.59;87.11
83246;BME280;73140;46.754;17.714;2024-03-29T01:37:46;98922.69;;;8.45;86.12
83246;BME280;73140;46.754;17.714;2024-03-29T01:40:13;98900.75;;;8.49;85.13
83246;BME280;73140;46.754;17.714;2024-03-29T01:42:39;98906.75;;;8.32;87.17
83246;BME280;73140;46.754;17.714;2024-03-29T01:45:05;98919.94;;;8.33;86.43
83246;BME280;73140;46.754;17.714;2024-03-29T01:47:32;98922.56;;;8.32;85.74
83246;BME280;73140;46.754;17.714;2024-03-29T01:50:00;98935.91;;;8.50;82.88
83246;BME280;73140;46.754;17.714;2024-03-29T01:52:27;98945.69;;;8.72;81.89
83246;BME280;73140;46.754;17.714;2024-03-29T01:54:54;98928.91;;;8.57;80.72
83246;BME280;73140;46.754;17.714;2024-03-29T01:57:26;98940.38;;;8.63;82.39
83246;BME280;73140;46.754;17.714;2024-03-29T01:59:52;98921.03;;;8.61;81.62
83246;BME280;73140;46.754;17.714;2024-03-29T02:02:18;98947.44;;;8.66;80.41
83246;BME280;73140;46.754;17.714;2024-03-29T02:04:45;98952.75;;;8.73;80.74
83246;BME280;73140;46.754;17.714;2024-03-29T02:07:13;98954.50;;;8.74;79.65
83246;BME280;73140;46.754;17.714;2024-03-29T02:09:39;98943.84;;;8.59;79.81
83246;BME280;73140;46.754;17.714;2024-03-29T02:12:06;98966.72;;;8.63;80.38
83246;BME280;73140;46.754;17.714;2024-03-29T02:14:32;98963.25;;;8.67;78.86
83246;BME280;73140;46.754;17.714;2024-03-29T02:16:58;98956.25;;;8.69;79.29
83246;BME280;73140;46.754;17.714;2024-03-29T02:19:26;98965.00;;;8.65;79.83
83246;BME280;73140;46.754;17.714;2024-03-29T02:21:52;98968.59;;;8.76;78.84
83246;BME280;73140;46.754;17.714;2024-03-29T02:24:23;98985.31;;;8.80;80.15
83246;BME280;73140;46.754;17.714;2024-03-29T02:26:50;98979.06;;;8.67;80.05
83246;BME280;73140;46.754;17.714;2024-03-29T02:29:16;99002.84;;;8.75;80.10
83246;BME280;73140;46.754;17.714;2024-03-29T02:31:44;98999.38;;;8.80;79.93
83246;BME280;73140;46.754;17.714;2024-03-29T02:34:10;98996.75;;;8.83;79.51
83246;BME280;73140;46.754;17.714;2024-03-29T02:36:36;98993.22;;;8.81;79.47
83246;BME280;73140;46.754;17.714;2024-03-29T02:39:03;98998.47;;;8.78;80.14
83246;BME280;73140;46.754;17.714;2024-03-29T02:41:31;98985.28;;;8.78;78.94
83246;BME280;73140;46.754;17.714;2024-03-29T02:43:59;99000.22;;;8.73;80.25
83246;BME280;73140;46.754;17.714;2024-03-29T02:46:25;98999.28;;;8.71;80.10
83246;BME280;73140;46.754;17.714;2024-03-29T02:48:51;99007.28;;;8.77;78.84
83246;BME280;73140;46.754;17.714;2024-03-29T02:51:17;99010.75;;;8.73;79.92
83246;BME280;73140;46.754;17.714;2024-03-29T02:53:46;99017.84;;;8.80;79.45
83246;BME280;73140;46.754;17.714;2024-03-29T02:56:14;99026.66;;;8.85;79.53
83246;BME280;73140;46.754;17.714;2024-03-29T02:58:46;99016.06;;;8.79;80.86
83246;BME280;73140;46.754;17.714;2024-03-29T03:01:12;99021.34;;;8.82;80.18
83246;BME280;73140;46.754;17.714;2024-03-29T03:03:39;99037.09;;;8.70;81.38
83246;BME280;73140;46.754;17.714;2024-03-29T03:06:05;99018.59;;;8.66;80.89
83246;BME280;73140;46.754;17.714;2024-03-29T03:08:31;99029.91;;;8.55;81.38
83246;BME280;73140;46.754;17.714;2024-03-29T03:11:16;99031.63;;;8.46;82.11
83246;BME280;73140;46.754;17.714;2024-03-29T03:13:42;99034.16;;;8.37;81.16
83246;BME280;73140;46.754;17.714;2024-03-29T03:16:10;99017.34;;;8.26;82.36
83246;BME280;73140;46.754;17.714;2024-03-29T03:18:37;99031.31;;;8.19;81.69
83246;BME280;73140;46.754;17.714;2024-03-29T03:21:03;99032.09;;;8.07;81.91
83246;BME280;73140;46.754;17.714;2024-03-29T03:23:30;99028.50;;;8.02;82.64
83246;BME280;73140;46.754;17.714;2024-03-29T03:25:58;99036.47;;;8.08;82.04
83246;BME280;73140;46.754;17.714;2024-03-29T03:28:25;99039.81;;;7.93;83.63
83246;BME280;73140;46.754;17.714;2024-03-29T03:30:53;99032.59;;;7.77;83.21
83246;BME280;73140;46.754;17.714;2024-03-29T03:33:23;99048.31;;;7.68;84.35
83246;BME280;73140;46.754;17.714;2024-03-29T03:35:49;99029.63;;;7.50;83.79
83246;BME280;73140;46.754;17.714;2024-03-29T03:38:22;99035.66;;;7.40;84.44
83246;BME280;73140;46.754;17.714;2024-03-29T03:40:49;99022.97;;;7.08;86.14
83246;BME280;73140;46.754;17.714;2024-03-29T03:43:16;99022.84;;;7.02;86.06
83246;BME280;73140;46.754;17.714;2024-03-29T03:45:42;99044.03;;;7.11;85.92
83246;BME280;73140;46.754;17.714;2024-03-29T03:48:10;99027.19;;;6.99;86.04
83246;BME280;73140;46.754;17.714;2024-03-29T03:50:39;99035.97;;;6.99;87.34
83246;BME280;73140;46.754;17.714;2024-03-29T03:53:07;99046.22;;;6.81;88.05
83246;BME280;73140;46.754;17.714;2024-03-29T03:55:36;99031.25;;;6.77;88.82
83246;BME280;73140;46.754;17.714;2024-03-29T03:58:03;99036.69;;;6.91;87.63
83246;BME280;73140;46.754;17.714;2024-03-29T04:00:29;99045.44;;;6.88;88.41
83246;BME280;73140;46.754;17.714;2024-03-29T04:02:55;99038.91;;;7.21;86.18
83246;BME280;73140;46.754;17.714;2024-03-29T04:05:22;99028.69;;;7.45;85.65
83246;BME280;73140;46.754;17.714;2024-03-29T04:07:52;99024.75;;;7.82;82.55
83246;BME280;73140;46.754;17.714;2024-03-29T04:10:18;99027.56;;;7.95;82.54
83246;BME280;73140;46.754;17.714;2024-03-29T04:12:44;99021.34;;;7.90;81.44
83246;BME280;73140;46.754;17.714;2024-03-29T04:15:10;99024.59;;;7.67;83.00
83246;BME280;73140;46.754;17.714;2024-03-29T04:17:37;99042.78;;;7.50;82.80
83246;BME280;73140;46.754;17.714;2024-03-29T04:20:04;99045.63;;;7.64;82.77
83246;BME280;73140;46.754;17.714;2024-03-29T04:22:31;99052.47;;;8.26;80.02
83246;BME280;73140;46.754;17.714;2024-03-29T04:24:58;99059.09;;;8.75;77.74
83246;BME280;73140;46.754;17.714;2024-03-29T04:27:30;99052.28;;;9.05;75.77
83246;BME280;73140;46.754;17.714;2024-03-29T04:29:56;99046.22;;;9.16;74.44
83246;BME280;73140;46.754;17.714;2024-03-29T04:32:24;99061.16;;;9.16;75.76
83246;BME280;73140;46.754;17.714;2024-03-29T04:34:52;99050.66;;;9.20;74.23
83246;BME280;73140;46.754;17.714;2024-03-29T04:37:18;99062.94;;;9.18;73.06
83246;BME280;73140;46.754;17.714;2024-03-29T04:39:45;99074.06;;;8.79;76.58
83246;BME280;73140;46.754;17.714;2024-03-29T04:42:15;99084.25;;;8.43;79.03
83246;BME280;73140;46.754;17.714;2024-03-29T04:44:42;99071.72;;;8.21;78.76
83246;BME280;73140;46.754;17.714;2024-03-29T04:47:08;99083.91;;;8.13;79.01
83246;BME280;73140;46.754;17.714;2024-03-29T04:49:37;99097.75;;;7.93;80.80
83246;BME280;73140;46.754;17.714;2024-03-29T04:52:04;99096.53;;;7.69;80.87
83246;BME280;73140;46.754;17.714;2024-03-29T04:54:30;99118.25;;;7.51;83.23
83246;BME280;73140;46.754;17.714;2024-03-29T04:56:56;99118.19;;;7.46;82.93
83246;BME280;73140;46.754;17.714;2024-03-29T04:59:24;99101.22;;;7.26;84.53
83246;BME280;73140;46.754;17.714;2024-03-29T05:01:50;99119.69;;;7.31;84.70
83246;BME280;73140;46.754;17.714;2024-03-29T05:04:17;99112.84;;;7.42;84.00
83246;BME280;73140;46.754;17.714;2024-03-29T05:06:51;99122.56;;;7.46;84.33
83246;BME280;73140;46.754;17.714;2024-03-29T05:09:17;99119.63;;;7.26;85.47
83246;BME280;73140;46.754;17.714;2024-03-29T05:11:43;99124.81;;;7.22;85.29
83246;BME280;73140;46.754;17.714;2024-03-29T05:14:09;99147.78;;;7.32;86.53
83246;BME280;73140;46.754;17.714;2024-03-29T05:16:37;99135.63;;;7.40;86.83
83246;BME280;73140;46.754;17.714;2024-03-29T05:19:03;99145.53;;;7.56;85.35
83246;BME280;73140;46.754;17.714;2024-03-29T05:21:29;99147.50;;;7.74;85.30
83246;BME280;73140;46.754;17.714;2024-03-29T05:23:55;99161.84;;;7.95;83.83
83246;BME280;73140;46.754;17.714;2024-03-29T05:26:21;99164.75;;;8.17;84.07
83246;BME280;73140;46.754;17.714;2024-03-29T05:28:47;99152.38;;;8.09;84.19
83246;BME280;73140;46.754;17.714;2024-03-29T05:31:14;99133.97;;;8.11;85.41
83246;BME280;73140;46.754;17.714;2024-03-29T05:33:42;99139.16;;;8.08;85.87
83246;BME280;73140;46.754;17.714;2024-03-29T05:36:12;99150.75;;;8.21;86.88
83246;BME280;73140;46.754;17.714;2024-03-29T05:38:39;99141.91;;;8.14;85.93
83246;BME280;73140;46.754;17.714;2024-03-29T05:41:05;99132.16;;;8.07;85.05
83246;BME280;73140;46.754;17.714;2024-03-29T05:43:34;99148.06;;;8.16;85.13
83246;BME280;73140;46.754;17.714;2024-03-29T05:46:01;99150.94;;;8.33;85.06
83246;BME280;73140;46.754;17.714;2024-03-29T05:48:28;99125.56;;;8.44;85.54
83246;BME280;73140;46.754;17.714;2024-03-29T05:50:56;99139.84;;;8.64;85.17
83246;BME280;73140;46.754;17.714;2024-03-29T05:53:22;99130.25;;;8.72;85.50
83246;BME280;73140;46.754;17.714;2024-03-29T05:55:48;99129.41;;;8.73;85.92
83246;BME280;73140;46.754;17.714;2024-03-29T05:58:14;99138.38;;;8.93;85.92
83246;BME280;73140;46.754;17.714;2024-03-29T06:00:43;99112.09;;;9.04;84.85
83246;BME280;73140;46.754;17.714;2024-03-29T06:03:46;99144.75;;;9.20;85.18
83246;BME280;73140;46.754;17.714;2024-03-29T06:06:14;99140.41;;;9.29;84.86
83246;BME280;73140;46.754;17.714;2024-03-29T06:08:43;99143.94;;;9.28;85.83
83246;BME280;73140;46.754;17.714;2024-03-29T06:11:09;99145.69;;;9.29;86.67
83246;BME280;73140;46.754;17.714;2024-03-29T06:13:35;99144.03;;;9.45;85.52
83246;BME280;73140;46.754;17.714;2024-03-29T06:16:21;99130.84;;;9.43;87.98
83246;BME280;73140;46.754;17.714;2024-03-29T06:19:06;99131.00;;;9.71;84.73
83246;BME280;73140;46.754;17.714;2024-03-29T06:21:33;99121.34;;;9.74;84.46
83246;BME280;73140;46.754;17.714;2024-03-29T06:24:05;99128.47;;;9.93;83.48
83246;BME280;73140;46.754;17.714;2024-03-29T06:26:32;99125.81;;;9.89;84.46
83246;BME280;73140;46.754;17.714;2024-03-29T06:28:58;99133.78;;;9.95;84.13
83246;BME280;73140;46.754;17.714;2024-03-29T06:31:25;99127.63;;;9.94;83.79
83246;BME280;73140;46.754;17.714;2024-03-29T06:33:51;99132.06;;;10.05;84.14
83246;BME280;73140;46.754;17.714;2024-03-29T06:36:17;99137.50;;;10.39;83.34
83246;BME280;73140;46.754;17.714;2024-03-29T06:38:45;99138.44;;;10.64;81.52
83246;BME280;73140;46.754;17.714;2024-03-29T06:41:11;99142.00;;;10.72;81.88
83246;BME280;73140;46.754;17.714;2024-03-29T06:43:40;99133.13;;;10.55;82.74
83246;BME280;73140;46.754;17.714;2024-03-29T06:46:06;99139.34;;;10.68;81.14
83246;BME280;73140;46.754;17.714;2024-03-29T06:48:33;99138.44;;;10.70;83.12
83246;BME280;73140;46.754;17.714;2024-03-29T06:50:59;99133.19;;;10.76;81.78
83246;BME280;73140;46.754;17.714;2024-03-29T06:53:25;99129.66;;;10.83;77.68
83246;BME280;73140;46.754;17.714;2024-03-29T06:55:59;99124.38;;;10.99;79.69
83246;BME280;73140;46.754;17.714;2024-03-29T06:58:26;99135.88;;;10.98;78.20
83246;BME280;73140;46.754;17.714;2024-03-29T07:00:52;99128.81;;;11.13;77.66
83246;BME280;73140;46.754;17.714;2024-03-29T07:03:19;99120.84;;;11.48;77.27
83246;BME280;73140;46.754;17.714;2024-03-29T07:05:46;99115.50;;;11.57;77.10
83246;BME280;73140;46.754;17.714;2024-03-29T07:08:12;99119.00;;;11.85;79.60
83246;BME280;73140;46.754;17.714;2024-03-29T07:10:38;99124.31;;;11.91;80.60
83246;BME280;73140;46.754;17.714;2024-03-29T07:13:07;99134.84;;;12.02;78.10
83246;BME280;73140;46.754;17.714;2024-03-29T07:15:33;99121.44;;;12.40;77.35
83246;BME280;73140;46.754;17.714;2024-03-29T07:18:02;99131.09;;;12.51;76.93
83246;BME280;73140;46.754;17.714;2024-03-29T07:20:32;99121.38;;;12.49;76.41
83246;BME280;73140;46.754;17.714;2024-03-29T07:22:58;99134.47;;;12.74;75.23
83246;BME280;73140;46.754;17.714;2024-03-29T07:25:28;99139.03;;;12.56;77.00
83246;BME280;73140;46.754;17.714;2024-03-29T07:27:54;99153.03;;;12.79;74.76
83246;BME280;73140;46.754;17.714;2024-03-29T07:30:22;99153.97;;;12.72;75.41
83246;BME280;73140;46.754;17.714;2024-03-29T07:32:51;99150.41;;;12.77;74.65
83246;BME280;73140;46.754;17.714;2024-03-29T07:35:18;99151.22;;;12.87;74.36
83246;BME280;73140;46.754;17.714;2024-03-29T07:37:44;99137.94;;;12.89;75.32
83246;BME280;73140;46.754;17.714;2024-03-29T07:40:13;99132.63;;;12.89;74.99
83246;BME280;73140;46.754;17.714;2024-03-29T07:42:40;99124.56;;;13.05;78.27
83246;BME280;73140;46.754;17.714;2024-03-29T07:45:06;99134.03;;;13.38;76.71
83246;BME280;73140;46.754;17.714;2024-03-29T07:47:35;99129.53;;;13.46;76.66
83246;BME280;73140;46.754;17.714;2024-03-29T07:50:04;99126.84;;;13.49;75.84
83246;BME280;73140;46.754;17.714;2024-03-29T07:52:32;99124.56;;;13.97;72.53
83246;BME280;73140;46.754;17.714;2024-03-29T07:54:59;99125.22;;;14.17;72.18
83246;BME280;73140;46.754;17.714;2024-03-29T07:57:26;99114.34;;;14.37;74.20
83246;BME280;73140;46.754;17.714;2024-03-29T07:59:52;99108.78;;;14.55;71.50
83246;BME280;73140;46.754;17.714;2024-03-29T08:02:21;99107.69;;;14.70;70.81
83246;BME280;73140;46.754;17.714;2024-03-29T08:04:52;99109.19;;;14.87;71.81
83246;BME280;73140;46.754;17.714;2024-03-29T08:07:18;99105.25;;;15.12;72.92
83246;BME280;73140;46.754;17.714;2024-03-29T08:09:44;99103.09;;;15.34;70.99
83246;BME280;73140;46.754;17.714;2024-03-29T08:12:11;99102.75;;;15.55;68.97
83246;BME280;73140;46.754;17.714;2024-03-29T08:14:37;99085.38;;;15.81;67.57
83246;BME280;73140;46.754;17.714;2024-03-29T08:17:03;99099.59;;;16.24;71.62
83246;BME280;73140;46.754;17.714;2024-03-29T08:19:33;99087.41;;;16.52;64.33
83246;BME280;73140;46.754;17.714;2024-03-29T08:22:01;99082.38;;;16.79;64.97
83246;BME280;73140;46.754;17.714;2024-03-29T08:24:27;99088.84;;;17.07;64.49
83246;BME280;73140;46.754;17.714;2024-03-29T08:26:53;99079.28;;;17.32;61.61
83246;BME280;73140;46.754;17.714;2024-03-29T08:29:19;99081.97;;;17.68;65.77
83246;BME280;73140;46.754;17.714;2024-03-29T08:31:47;99088.44;;;17.59;60.29
83246;BME280;73140;46.754;17.714;2024-03-29T08:34:13;99083.00;;;17.62;59.91
83246;BME280;73140;46.754;17.714;2024-03-29T08:36:39;99081.78;;;17.74;61.37
83246;BME280;73140;46.754;17.714;2024-03-29T08:39:22;99084.78;;;17.94;60.83
83246;BME280;73140;46.754;17.714;2024-03-29T08:41:48;99087.38;;;17.97;60.00
83246;BME280;73140;46.754;17.714;2024-03-29T08:44:14;99088.59;;;18.16;62.22
83246;BME280;73140;46.754;17.714;2024-03-29T08:46:43;99082.88;;;17.99;60.93
83246;BME280;73140;46.754;17.714;2024-03-29T08:49:11;99096.41;;;17.93;62.19
83246;BME280;73140;46.754;17.714;2024-03-29T08:51:37;99090.44;;;17.83;61.02
83246;BME280;73140;46.754;17.714;2024-03-29T08:54:09;99073.75;;;18.05;61.02
83246;BME280;73140;46.754;17.714;2024-03-29T08:56:36;99077.09;;;18.13;61.20
83246;BME280;73140;46.754;17.714;2024-03-29T08:59:03;99082.38;;;18.45;64.14
83246;BME280;73140;46.754;17.714;2024-03-29T09:01:36;99086.72;;;18.49;61.90
83246;BME280;73140;46.754;17.714;2024-03-29T09:04:02;99096.66;;;18.75;63.19
83246;BME280;73140;46.754;17.714;2024-03-29T09:06:38;99093.47;;;18.62;59.03
83246;BME280;73140;46.754;17.714;2024-03-29T09:09:24;99096.56;;;18.49;62.68
83246;BME280;73140;46.754;17.714;2024-03-29T09:11:52;99089.47;;;18.77;63.68
83246;BME280;73140;46.754;17.714;2024-03-29T09:14:18;99090.81;;;18.90;59.03
83246;BME280;73140;46.754;17.714;2024-03-29T09:16:44;99096.53;;;18.79;60.43
83246;BME280;73140;46.754;17.714;2024-03-29T09:19:17;99085.56;;;18.87;62.66
83246;BME280;73140;46.754;17.714;2024-03-29T09:21:49;99097.81;;;19.22;62.13
83246;BME280;73140;46.754;17.714;2024-03-29T09:24:18;99093.16;;;19.28;58.07
83246;BME280;73140;46.754;17.714;2024-03-29T09:26:45;99096.25;;;19.69;58.99
83246;BME280;73140;46.754;17.714;2024-03-29T09:29:15;99083.75;;;19.93;56.79
83246;BME280;73140;46.754;17.714;2024-03-29T09:31:42;99068.78;;;19.61;58.41
83246;BME280;73140;46.754;17.714;2024-03-29T09:34:08;99073.53;;;19.79;57.67
83246;BME280;73140;46.754;17.714;2024-03-29T09:36:36;99077.75;;;19.86;57.71
83246;BME280;73140;46.754;17.714;2024-03-29T09:39:02;99091.47;;;19.77;57.66
83246;BME280;73140;46.754;17.714;2024-03-29T09:41:31;99068.19;;;19.53;57.99
83246;BME280;73140;46.754;17.714;2024-03-29T09:43:59;99064.25;;;19.63;58.75
83246;BME280;73140;46.754;17.714;2024-03-29T09:46:41;99071.88;;;19.75;58.95
83246;BME280;73140;46.754;17.714;2024-03-29T09:49:09;99081.09;;;19.68;59.05
83246;BME280;73140;46.754;17.714;2024-03-29T09:51:39;99075.06;;;19.86;58.34
83246;BME280;73140;46.754;17.714;2024-03-29T09:54:06;99058.81;;;19.64;57.45
83246;BME280;73140;46.754;17.714;2024-03-29T09:56:44;99064.41;;;20.08;57.60
83246;BME280;73140;46.754;17.714;2024-03-29T09:59:22;99065.53;;;20.25;58.55
83246;BME280;73140;46.754;17.714;2024-03-29T10:01:50;99063.59;;;20.31;56.26
83246;BME280;73140;46.754;17.714;2024-03-29T10:04:22;99051.16;;;20.03;57.33
83246;BME280;73140;46.754;17.714;2024-03-29T10:06:51;99059.69;;;19.65;56.42
83246;BME280;73140;46.754;17.714;2024-03-29T10:09:18;99069.28;;;19.97;59.83
83246;BME280;73140;46.754;17.714;2024-03-29T10:11:47;99054.28;;;19.91;56.95
83246;BME280;73140;46.754;17.714;2024-03-29T10:14:19;99058.50;;;19.98;59.34
83246;BME280;73140;46.754;17.714;2024-03-29T10:16:57;99050.84;;;19.63;56.27
83246;BME280;73140;46.754;17.714;2024-03-29T10:19:26;99051.09;;;19.80;57.17
83246;BME280;73140;46.754;17.714;2024-03-29T10:21:53;99036.00;;;19.77;58.03
83246;BME280;73140;46.754;17.714;2024-03-29T10:24:21;99042.84;;;19.86;58.24
83246;BME280;73140;46.754;17.714;2024-03-29T10:26:48;99038.88;;;19.96;57.34
83246;BME280;73140;46.754;17.714;2024-03-29T10:29:14;99043.91;;;20.30;57.55
83246;BME280;73140;46.754;17.714;2024-03-29T10:31:42;99031.53;;;20.48;58.43
83246;BME280;73140;46.754;17.714;2024-03-29T10:34:19;99030.59;;;20.72;57.32
83246;BME280;73140;46.754;17.714;2024-03-29T10:36:49;99010.00;;;20.93;55.74
83246;BME280;73140;46.754;17.714;2024-03-29T10:39:16;99022.25;;;20.78;55.35
83246;BME280;73140;46.754;17.714;2024-03-29T10:41:47;99014.94;;;20.60;55.43
83246;BME280;73140;46.754;17.714;2024-03-29T10:44:28;98995.44;;;20.76;55.73
83246;BME280;73140;46.754;17.714;2024-03-29T10:47:01;98985.81;;;20.93;53.92
83246;BME280;73140;46.754;17.714;2024-03-29T10:49:33;98988.78;;;21.29;56.98
83246;BME280;73140;46.754;17.714;2024-03-29T10:52:09;98976.94;;;21.12;55.86
83246;BME280;73140;46.754;17.714;2024-03-29T10:54:40;98971.69;;;21.30;57.52
83246;BME280;73140;46.754;17.714;2024-03-29T10:57:16;98969.72;;;21.33;57.21
83246;BME280;73140;46.754;17.714;2024-03-29T10:59:52;98974.03;;;21.37;56.07
83246;BME280;73140;46.754;17.714;2024-03-29T11:02:33;98961.75;;;21.52;57.60
83246;BME280;73140;46.754;17.714;2024-03-29T11:05:06;98964.19;;;21.56;56.51
83246;BME280;73140;46.754;17.714;2024-03-29T11:07:36;98951.88;;;21.71;56.24
83246;BME280;73140;46.754;17.714;2024-03-29T11:10:06;98955.00;;;21.62;54.62
83246;BME280;73140;46.754;17.714;2024-03-29T11:12:45;98954.28;;;21.77;55.16
83246;BME280;73140;46.754;17.714;2024-03-29T11:15:22;98955.09;;;21.99;53.13
83246;BME280;73140;46.754;17.714;2024-03-29T11:17:56;98961.63;;;21.94;55.26
83246;BME280;73140;46.754;17.714;2024-03-29T11:20:28;98944.38;;;22.16;53.74
83246;BME280;73140;46.754;17.714;2024-03-29T11:23:04;98943.59;;;22.14;55.68
83246;BME280;73140;46.754;17.714;2024-03-29T11:25:59;98931.72;;;22.54;51.01
83246;BME280;73140;46.754;17.714;2024-03-29T11:28:27;98954.06;;;22.21;52.17
83246;BME280;73140;46.754;17.714;2024-03-29T11:31:08;98949.66;;;22.55;52.74
83246;BME280;73140;46.754;17.714;2024-03-29T11:33:35;98943.28;;;22.39;52.02
83246;BME280;73140;46.754;17.714;2024-03-29T11:36:10;98952.47;;;22.54;54.41
83246;BME280;73140;46.754;17.714;2024-03-29T11:38:47;98934.97;;;22.44;51.34
83246;BME280;73140;46.754;17.714;2024-03-29T11:41:23;98930.56;;;22.60;51.51
83246;BME280;73140;46.754;17.714;2024-03-29T11:43:50;98948.59;;;22.95;50.50
83246;BME280;73140;46.754;17.714;2024-03-29T11:46:32;98941.09;;;22.29;50.77
83246;BME280;73140;46.754;17.714;2024-03-29T11:49:07;98935.00;;;22.06;54.55
83246;BME280;73140;46.754;17.714;2024-03-29T11:54:39;98928.47;;;21.53;55.20
83246;BME280;73140;46.754;17.714;2024-03-29T11:57:20;98925.06;;;21.68;53.82
83246;BME280;73140;46.754;17.714;2024-03-29T11:59:46;98921.03;;;21.78;53.17
83246;BME280;73140;46.754;17.714;2024-03-29T12:02:13;98936.09;;;21.82;53.49
83246;BME280;73140;46.754;17.714;2024-03-29T12:04:40;98914.53;;;21.63;52.39
83246;BME280;73140;46.754;17.714;2024-03-29T12:07:16;98932.00;;;21.35;51.02
83246;BME280;73140;46.754;17.714;2024-03-29T12:09:45;98921.53;;;21.29;52.91
83246;BME280;73140;46.754;17.714;2024-03-29T12:12:11;98921.63;;;21.26;50.72
83246;BME280;73140;46.754;17.714;2024-03-29T12:14:40;98928.47;;;21.53;51.86
83246;BME280;73140;46.754;17.714;2024-03-29T12:17:12;98910.25;;;21.98;51.14
83246;BME280;73140;46.754;17.714;2024-03-29T12:19:40;98916.00;;;21.89;50.39
83246;BME280;73140;46.754;17.714;2024-03-29T12:22:12;98910.88;;;22.22;49.16
83246;BME280;73140;46.754;17.714;2024-03-29T12:24:55;98906.59;;;22.18;48.88
83246;BME280;73140;46.754;17.714;2024-03-29T12:27:41;98915.03;;;22.10;50.96
83246;BME280;73140;46.754;17.714;2024-03-29T12:30:11;98912.31;;;21.53;52.05
83246;BME280;73140;46.754;17.714;2024-03-29T12:32:46;98912.97;;;21.19;52.93
83246;BME280;73140;46.754;17.714;2024-03-29T12:35:14;98916.16;;;21.07;52.50
83246;BME280;73140;46.754;17.714;2024-03-29T12:37:47;98918.25;;;21.41;51.81
83246;BME280;73140;46.754;17.714;2024-03-29T12:40:27;98912.13;;;21.57;53.43
83246;BME280;73140;46.754;17.714;2024-03-29T12:42:56;98914.81;;;21.76;54.10
83246;BME280;73140;46.754;17.714;2024-03-29T12:45:25;98924.50;;;22.00;50.55
83246;BME280;73140;46.754;17.714;2024-03-29T12:47:54;98923.88;;;21.75;50.57
83246;BME280;73140;46.754;17.714;2024-03-29T12:50:25;98921.75;;;21.43;50.85
83246;BME280;73140;46.754;17.714;2024-03-29T12:52:57;98930.91;;;21.39;54.71
83246;BME280;73140;46.754;17.714;2024-03-29T12:55:27;98913.22;;;21.72;52.50
83246;BME280;73140;46.754;17.714;2024-03-29T12:58:02;98903.44;;;22.08;51.12
83246;BME280;73140;46.754;17.714;2024-03-29T13:00:32;98928.59;;;21.70;52.45
83246;BME280;73140;46.754;17.714;2024-03-29T13:03:10;98920.69;;;21.47;52.36
83246;BME280;73140;46.754;17.714;2024-03-29T13:05:40;98922.53;;;21.65;52.20
83246;BME280;73140;46.754;17.714;2024-03-29T13:08:11;98913.88;;;21.58;52.61